Time;durP1;ratioP1;P1;durP2;ratioP2;P2;SDS_P1;SDS_P2;PMS_P1;PMS_P2;Temp;Humidity;BMP_temperature;BMP_pressure;BME280_temperature;BME280_humidity;BME280_pressure;Samples;Min_cycle;Max_cycle;Signal;HPM_P1;HPM_P2
2021/04/13 00:01:16;;;;;;;5.65;3.00;;;4.90;99.90;;;;;;5034866;28;20057;-77
2021/04/13 00:03:43;;;;;;;4.28;2.72;;;4.90;99.90;;;;;;5017161;28;20069;-77
2021/04/13 00:06:11;;;;;;;6.28;2.70;;;4.90;99.90;;;;;;5034663;28;20112;-77
2021/04/13 00:08:38;;;;;;;4.63;2.80;;;4.90;99.90;;;;;;5000957;28;20523;-77
2021/04/13 00:11:07;;;;;;;5.55;3.10;;;4.90;99.90;;;;;;5034764;28;20499;-77
2021/04/13 00:13:34;;;;;;;7.00;2.65;;;4.80;99.90;;;;;;5016934;28;20503;-78
2021/04/13 00:16:16;;;;;;;5.95;2.83;;;4.70;99.90;;;;;;5016925;28;20076;-78
2021/04/13 00:18:44;;;;;;;4.72;2.67;;;4.90;99.90;;;;;;5034510;28;20095;-77
2021/04/13 00:21:18;;;;;;;4.97;2.80;;;5.00;99.90;;;;;;5016815;28;20018;-77
2021/04/13 00:23:45;;;;;;;6.50;2.85;;;4.60;99.90;;;;;;5034816;28;20104;-77
2021/04/13 00:26:26;;;;;;;4.85;2.88;;;4.50;99.90;;;;;;5034469;28;20196;-78
2021/04/13 00:28:53;;;;;;;4.50;2.78;;;4.70;99.90;;;;;;5016752;28;20044;-78
2021/04/13 00:34:14;;;;;;;4.35;2.55;;;4.10;99.90;;;;;;5033979;28;20033;-76
2021/04/13 00:36:41;;;;;;;5.13;2.95;;;4.70;99.90;;;;;;5034886;28;20018;-78
2021/04/13 00:39:19;;;;;;;4.78;2.63;;;4.30;99.90;;;;;;5016172;28;20069;-77
2021/04/13 00:41:48;;;;;;;3.47;2.60;;;4.60;99.90;;;;;;5034195;28;20496;-76
2021/04/13 00:44:16;;;;;;;3.25;2.58;;;4.80;99.90;;;;;;5034037;28;20428;-77
2021/04/13 00:46:55;;;;;;;4.30;2.45;;;4.70;99.90;;;;;;5034356;28;20021;-76
2021/04/13 00:49:24;;;;;;;6.50;2.78;;;4.90;99.90;;;;;;5016418;28;20447;-77
2021/04/13 00:51:56;;;;;;;4.82;2.90;;;4.70;99.90;;;;;;5034261;28;20022;-77
2021/04/13 00:54:26;;;;;;;4.90;2.83;;;4.70;99.90;;;;;;5016286;28;20034;-76
2021/04/13 00:56:53;;;;;;;5.93;2.40;;;4.90;99.90;;;;;;5033950;28;20022;-77
2021/04/13 00:59:21;;;;;;;4.40;2.60;;;4.80;99.90;;;;;;5016112;28;20075;-77
2021/04/13 01:01:58;;;;;;;4.18;2.60;;;4.60;99.90;;;;;;5016051;28;20025;-77
2021/04/13 01:04:34;;;;;;;4.43;2.70;;;4.50;99.90;;;;;;5033830;28;20468;-77
2021/04/13 01:07:07;;;;;;;5.78;2.40;;;4.30;99.90;;;;;;5016046;28;20025;-77
2021/04/13 01:09:42;;;;;;;8.55;3.00;;;4.40;99.90;;;;;;5033748;28;20443;-77
2021/04/13 01:12:18;;;;;;;5.05;2.85;;;4.20;99.90;;;;;;5033693;28;20026;-77
2021/04/13 01:14:45;;;;;;;3.72;2.75;;;4.50;99.90;;;;;;5033685;28;20480;-77
2021/04/13 01:17:11;;;;;;;4.55;3.10;;;4.30;99.90;;;;;;5033508;28;20036;-77
2021/04/13 01:20:02;;;;;;;3.60;2.25;;;4.50;99.90;;;;;;5015325;28;20022;-77
2021/04/13 01:22:49;;;;;;;4.28;2.58;;;4.60;99.90;;;;;;5033525;28;20022;-77
2021/04/13 01:25:23;;;;;;;4.82;2.67;;;5.00;99.90;;;;;;5015821;28;20021;-78
2021/04/13 01:28:01;;;;;;;5.57;3.30;;;5.00;99.90;;;;;;5015689;28;20024;-78
2021/04/13 01:30:38;;;;;;;3.92;2.75;;;4.70;99.90;;;;;;5033754;28;20109;-77
2021/04/13 01:33:46;;;;;;;6.70;3.05;;;4.30;99.90;;;;;;5034245;28;20026;-77
2021/04/13 01:36:26;;;;;;;5.55;2.83;;;3.80;99.90;;;;;;5015678;28;20053;-77
2021/04/13 01:38:59;;;;;;;4.75;3.20;;;3.50;99.90;;;;;;5015305;28;20050;-78
2021/04/13 01:41:41;;;;;;;4.53;2.83;;;3.40;99.90;;;;;;5033640;28;20100;-77
2021/04/13 01:44:08;;;;;;;4.82;2.80;;;3.30;99.90;;;;;;5015566;28;20029;-77
2021/04/13 01:46:35;;;;;;;3.08;2.47;;;3.40;99.90;;;;;;5015560;28;20033;-76
2021/04/13 01:49:01;;;;;;;8.32;2.63;;;3.50;99.90;;;;;;5033221;28;20104;-77
2021/04/13 01:51:32;;;;;;;5.13;3.28;;;3.60;99.90;;;;;;5015456;28;20511;-77
2021/04/13 01:53:58;;;;;;;2.80;2.10;;;3.20;99.90;;;;;;5033199;28;20393;-77
2021/04/13 01:56:55;;;;;;;4.35;2.50;;;3.60;99.90;;;;;;5015556;28;20428;-77
2021/04/13 01:59:36;;;;;;;3.30;2.20;;;4.10;99.90;;;;;;5032460;28;20095;-77
2021/04/13 02:02:15;;;;;;;4.63;2.67;;;4.00;99.90;;;;;;5015457;28;20527;-76
2021/04/13 02:04:50;;;;;;;9.10;3.15;;;4.40;99.90;;;;;;5033436;28;20100;-76
2021/04/13 02:10:31;;;;;;;4.38;3.05;;;4.60;99.90;;;;;;5033617;28;20036;-77
2021/04/13 02:13:14;;;;;;;4.63;2.53;;;4.10;99.90;;;;;;5033046;28;20017;-77
2021/04/13 02:16:12;;;;;;;4.78;2.40;;;4.30;99.90;;;;;;5033287;28;20060;-76
2021/04/13 02:18:47;;;;;;;4.25;2.85;;;4.80;99.90;;;;;;5014350;28;20100;-76
2021/04/13 02:21:21;;;;;;;4.40;2.60;;;4.50;99.90;;;;;;5015216;28;20026;-77
2021/04/13 02:24:03;;;;;;;6.63;2.50;;;4.30;99.90;;;;;;5015269;28;20029;-77
2021/04/13 02:26:30;;;;;;;4.55;2.42;;;4.20;99.90;;;;;;5033172;28;20030;-76
2021/04/13 02:28:57;;;;;;;5.05;2.88;;;4.10;99.90;;;;;;5033115;28;20026;-77
2021/04/13 02:31:47;;;;;;;5.10;2.80;;;4.30;99.90;;;;;;5017870;28;20022;-77
2021/04/13 02:34:24;;;;;;;3.58;2.40;;;4.10;99.90;;;;;;5018949;28;20032;-77
2021/04/13 02:36:55;;;;;;;5.25;3.10;;;4.00;99.90;;;;;;5018796;28;20431;-77
2021/04/13 02:39:25;;;;;;;3.20;2.60;;;3.80;99.90;;;;;;5015177;28;20088;-77
2021/04/13 02:42:00;;;;;;;3.25;2.40;;;3.50;99.90;;;;;;5015482;28;20029;-76
2021/04/13 02:44:26;;;;;;;4.28;2.90;;;4.00;99.90;;;;;;5016933;28;20099;-76
2021/04/13 02:46:56;;;;;;;4.70;2.90;;;4.20;99.90;;;;;;5015326;28;20026;-76
2021/04/13 02:49:24;;;;;;;4.07;2.78;;;4.00;99.90;;;;;;5016809;28;20054;-76
2021/04/13 02:52:04;;;;;;;4.47;2.58;;;4.20;99.90;;;;;;5016560;28;20030;-77
2021/04/13 02:54:43;;;;;;;5.82;2.95;;;4.30;99.90;;;;;;5015197;28;20397;-76
2021/04/13 02:57:33;;;;;;;4.75;2.90;;;4.00;99.90;;;;;;5015136;28;20030;-77
2021/04/13 03:00:09;;;;;;;4.05;2.80;;;3.40;99.90;;;;;;5016145;28;20034;-77
2021/04/13 03:02:39;;;;;;;4.90;2.92;;;3.60;99.90;;;;;;5016477;28;20037;-77
2021/04/13 03:05:07;;;;;;;4.72;2.85;;;3.60;99.90;;;;;;5015005;28;20044;-77
2021/04/13 03:07:37;;;;;;;3.78;2.85;;;3.40;99.90;;;;;;5016209;28;20014;-77
2021/04/13 03:10:07;;;;;;;4.88;2.55;;;3.20;99.90;;;;;;5016193;28;20374;-77
2021/04/13 03:12:36;;;;;;;3.63;2.42;;;3.70;99.90;;;;;;5016062;28;20030;-77
2021/04/13 03:15:02;;;;;;;3.53;2.50;;;3.40;99.90;;;;;;5016346;28;20374;-77
2021/04/13 03:17:31;;;;;;;4.50;2.72;;;3.40;99.90;;;;;;5016006;28;20501;-76
2021/04/13 03:20:14;;;;;;;3.90;2.97;;;3.50;99.90;;;;;;5014658;28;20025;-76
2021/04/13 03:22:41;;;;;;;4.10;2.55;;;3.10;99.90;;;;;;5016231;28;20029;-77
2021/04/13 03:25:10;;;;;;;3.88;2.60;;;3.30;99.90;;;;;;5014619;28;20026;-76
2021/04/13 03:27:37;;;;;;;4.80;2.88;;;3.90;99.90;;;;;;5016136;28;20377;-77
2021/04/13 03:30:12;;;;;;;5.03;2.33;;;3.90;99.90;;;;;;5016336;28;20072;-77
2021/04/13 03:33:02;;;;;;;3.42;2.72;;;3.90;99.90;;;;;;5014447;28;20061;-77
2021/04/13 03:35:28;;;;;;;3.50;2.50;;;3.70;99.90;;;;;;5014400;28;20022;-77
2021/04/13 03:37:57;;;;;;;3.72;2.38;;;3.90;99.90;;;;;;5015855;28;20469;-77
2021/04/13 03:40:26;;;;;;;3.47;2.42;;;4.30;99.90;;;;;;5014016;28;20081;-77
2021/04/13 03:43:00;;;;;;;5.18;2.60;;;4.30;99.90;;;;;;5015295;28;20091;-76
2021/04/13 03:45:27;;;;;;;5.27;2.70;;;3.80;99.90;;;;;;5015535;28;20096;-76
2021/04/13 03:47:54;;;;;;;3.60;2.47;;;3.90;99.90;;;;;;5015437;28;20538;-76
2021/04/13 03:50:27;;;;;;;3.13;2.22;;;3.70;99.90;;;;;;5015573;28;20112;-77
2021/04/13 03:53:15;;;;;;;4.28;2.53;;;4.10;99.90;;;;;;5015643;28;20029;-76
2021/04/13 03:55:57;;;;;;;4.93;3.05;;;4.10;99.90;;;;;;5014074;28;20129;-77
2021/04/13 03:58:24;;;;;;;5.82;2.92;;;4.00;99.90;;;;;;5014009;28;20024;-78
2021/04/13 04:00:53;;;;;;;4.35;2.97;;;3.60;99.90;;;;;;5015195;28;20041;-77
2021/04/13 04:03:19;;;;;;;5.88;2.78;;;3.60;99.90;;;;;;5015170;28;20030;-76
2021/04/13 04:05:52;;;;;;;5.70;3.75;;;3.10;99.90;;;;;;5015355;28;20034;-77
2021/04/13 04:08:39;;;;;;;6.43;2.75;;;3.10;99.90;;;;;;5015411;28;20504;-77
2021/04/13 04:11:06;;;;;;;5.85;3.38;;;3.40;99.90;;;;;;5013705;28;20036;-78
2021/04/13 04:13:37;;;;;;;6.47;3.97;;;3.60;99.90;;;;;;5015510;28;20026;-76
2021/04/13 04:16:03;;;;;;;8.10;3.60;;;3.00;99.90;;;;;;5014966;28;20022;-77
2021/04/13 04:18:40;;;;;;;6.03;3.20;;;2.70;99.90;;;;;;5013580;28;20599;-77
2021/04/13 04:21:27;;;;;;;6.32;3.50;;;2.60;99.90;;;;;;5013468;28;20389;-77
2021/04/13 04:24:18;;;;;;;9.18;3.47;;;2.60;99.90;;;;;;5014767;28;20046;-77
2021/04/13 04:26:55;;;;;;;6.47;3.70;;;2.60;99.90;;;;;;5000725;28;20113;-77
2021/04/13 04:29:33;;;;;;;7.05;3.80;;;3.10;99.90;;;;;;5013413;28;20030;-77
2021/04/13 04:32:36;;;;;;;12.35;7.68;;;3.10;99.90;;;;;;5013329;28;20507;-77
2021/04/13 04:35:07;;;;;;;7.13;4.47;;;3.10;99.90;;;;;;5013363;28;20543;-76
2021/04/13 04:37:36;;;;;;;7.45;4.25;;;3.00;99.90;;;;;;5014495;28;20022;-76
2021/04/13 04:40:11;;;;;;;5.22;3.40;;;2.90;99.90;;;;;;5027940;28;20065;-77
2021/04/13 04:42:46;;;;;;;5.85;3.80;;;3.00;99.90;;;;;;5034124;28;20487;-77
2021/04/13 04:45:17;;;;;;;7.93;4.10;;;3.00;99.90;;;;;;5016410;28;20025;-77
2021/04/13 04:47:44;;;;;;;8.90;4.10;;;3.00;99.90;;;;;;5016285;28;20082;-77
2021/04/13 04:50:13;;;;;;;7.43;3.47;;;3.00;99.90;;;;;;5016203;28;20025;-77
2021/04/13 04:52:39;;;;;;;6.28;3.88;;;2.90;99.90;;;;;;5015509;28;20026;-77
2021/04/13 04:55:05;;;;;;;4.82;3.40;;;3.20;99.90;;;;;;5033922;28;20029;-77
2021/04/13 04:57:31;;;;;;;7.65;4.05;;;3.20;99.90;;;;;;5033831;28;20017;-76
2021/04/13 04:59:56;;;;;;;6.07;4.45;;;3.20;99.90;;;;;;5016069;28;20087;-76
2021/04/13 05:02:22;;;;;;;5.53;3.28;;;3.30;99.90;;;;;;5034318;28;20063;-77
2021/04/13 05:04:48;;;;;;;7.35;4.07;;;3.80;99.90;;;;;;5034030;28;20026;-77
2021/04/13 05:07:13;;;;;;;19.58;7.85;;;4.10;99.90;;;;;;5033994;28;20029;-76
2021/04/13 05:09:39;;;;;;;5.93;4.15;;;3.60;99.90;;;;;;5033629;28;20025;-77
2021/04/13 05:12:06;;;;;;;7.43;4.50;;;3.20;99.90;;;;;;5016011;28;20503;-77
2021/04/13 05:14:33;;;;;;;8.07;3.95;;;3.30;99.90;;;;;;5033581;28;20075;-76
2021/04/13 05:16:58;;;;;;;9.07;4.43;;;3.00;99.90;;;;;;5033605;28;20021;-77
2021/04/13 05:19:24;;;;;;;6.93;4.07;;;3.00;99.90;;;;;;5015872;28;20439;-77
2021/04/13 05:21:50;;;;;;;4.90;3.45;;;2.90;99.90;;;;;;5033499;28;20022;-77
2021/04/13 05:24:16;;;;;;;8.55;4.82;;;3.00;99.90;;;;;;5015793;28;20029;-77
2021/04/13 05:26:41;;;;;;;8.55;4.68;;;3.40;99.90;;;;;;5033717;28;20030;-78
2021/04/13 05:29:07;;;;;;;8.75;4.78;;;3.40;99.90;;;;;;5015608;28;20030;-77
2021/04/13 05:31:34;;;;;;;7.15;4.40;;;3.30;99.90;;;;;;5015661;28;20029;-76
2021/04/13 05:34:00;;;;;;;10.07;3.97;;;3.60;99.90;;;;;;5033351;28;20018;-77
2021/04/13 05:36:26;;;;;;;7.50;4.72;;;3.50;99.90;;;;;;5033361;28;20033;-77
2021/04/13 05:38:53;;;;;;;9.27;4.40;;;3.50;99.90;;;;;;5033046;28;20127;-76
2021/04/13 05:41:19;;;;;;;7.65;5.13;;;3.50;99.90;;;;;;5015360;28;20041;-77
2021/04/13 05:43:46;;;;;;;5.45;4.28;;;3.10;99.90;;;;;;5033239;28;20037;-77
2021/04/13 05:46:16;;;;;;;8.38;4.70;;;3.00;99.90;;;;;;5033148;28;20053;-77
2021/04/13 05:48:42;;;;;;;8.80;5.18;;;3.10;99.90;;;;;;5033288;28;20576;-77
2021/04/13 05:51:08;;;;;;;7.20;4.53;;;3.00;99.90;;;;;;5015395;28;20033;-76
2021/04/13 05:53:33;;;;;;;9.85;5.22;;;3.00;99.90;;;;;;5033154;28;20021;-76
2021/04/13 05:55:59;;;;;;;6.78;4.80;;;3.20;99.90;;;;;;5015401;28;20037;-78
2021/04/13 05:58:31;;;;;;;6.38;4.85;;;3.10;99.90;;;;;;5033155;28;20021;-77
2021/04/13 06:01:00;;;;;;;7.10;4.57;;;3.20;99.90;;;;;;5033126;28;20484;-76
2021/04/13 06:03:26;;;;;;;8.27;4.75;;;3.30;99.90;;;;;;5015330;28;20033;-77
2021/04/13 06:05:56;;;;;;;10.82;6.15;;;3.40;99.90;;;;;;5019096;28;20400;-77
2021/04/13 06:08:22;;;;;;;8.55;5.63;;;3.40;99.90;;;;;;5037041;28;20025;-78
2021/04/13 06:10:47;;;;;;;7.32;5.53;;;3.40;99.90;;;;;;5036957;28;20033;-78
2021/04/13 06:13:13;;;;;;;8.93;5.07;;;3.50;99.90;;;;;;5019164;28;20025;-77
2021/04/13 06:15:39;;;;;;;8.05;5.57;;;3.50;99.90;;;;;;5036917;28;20027;-77
2021/04/13 06:18:05;;;;;;;7.88;5.85;;;3.80;99.90;;;;;;5037182;28;20570;-77
2021/04/13 06:20:31;;;;;;;7.72;4.75;;;3.70;99.90;;;;;;5019111;28;20563;-78
2021/04/13 06:23:00;;;;;;;9.95;5.65;;;3.70;99.90;;;;;;5019006;28;20057;-77
2021/04/13 06:25:30;;;;;;;9.43;5.97;;;3.80;99.90;;;;;;5018981;28;20040;-77
2021/04/13 06:27:57;;;;;;;8.60;5.30;;;3.80;99.90;;;;;;5036781;28;20479;-76
2021/04/13 06:30:24;;;;;;;6.93;4.78;;;4.00;99.90;;;;;;5036589;28;20027;-77
2021/04/13 06:32:50;;;;;;;9.57;6.00;;;4.10;99.90;;;;;;5036626;28;20048;-78
2021/04/13 06:35:17;;;;;;;7.45;5.18;;;4.20;99.90;;;;;;5036518;28;20483;-78
2021/04/13 06:37:45;;;;;;;14.10;6.32;;;4.30;99.90;;;;;;5018760;28;20112;-78
2021/04/13 06:40:35;;;;;;;10.15;6.32;;;4.40;99.90;;;;;;5018556;28;20053;-78
2021/04/13 06:43:43;;;;;;;7.75;5.03;;;4.40;99.90;;;;;;5001584;28;20041;-78
2021/04/13 06:46:20;;;;;;;7.95;5.93;;;4.70;99.90;;;;;;5017904;28;20083;-78
2021/04/13 06:49:15;;;;;;;7.93;5.53;;;4.80;99.90;;;;;;5018546;28;20033;-79
2021/04/13 06:51:56;;;;;;;9.25;5.78;;;5.00;99.90;;;;;;4997996;28;20435;-78
2021/04/13 06:54:22;;;;;;;9.10;6.30;;;5.10;99.90;;;;;;5018464;28;20548;-78
2021/04/13 06:57:15;;;;;;;11.30;6.85;;;5.30;99.90;;;;;;5036353;28;20139;-78
2021/04/13 07:00:19;;;;;;;13.38;6.45;;;5.60;99.90;;;;;;5036006;28;20045;-78
2021/04/13 07:02:49;;;;;;;9.10;6.57;;;5.70;99.90;;;;;;5018170;28;20026;-78
2021/04/13 07:05:52;;;;;;;9.65;6.90;;;5.70;99.90;;;;;;5036197;28;20025;-78
2021/04/13 07:08:35;;;;;;;10.30;7.18;;;5.60;99.90;;;;;;5018165;28;20025;-78
2021/04/13 07:11:08;;;;;;;10.45;7.57;;;5.50;99.90;;;;;;5036120;28;20025;-78
2021/04/13 07:13:50;;;;;;;9.10;6.53;;;5.50;99.90;;;;;;5036095;28;20045;-78
2021/04/13 07:16:25;;;;;;;12.23;8.15;;;5.60;99.90;;;;;;5017025;28;20448;-78
2021/04/13 07:19:01;;;;;;;10.77;6.50;;;5.50;99.90;;;;;;5035636;28;20013;-78
2021/04/13 07:21:39;;;;;;;13.60;8.55;;;5.50;99.90;;;;;;5035666;28;20045;-78
2021/04/13 07:24:21;;;;;;;20.63;13.00;;;5.70;99.90;;;;;;5017904;28;20113;-78
2021/04/13 07:27:05;;;;;;;13.30;8.68;;;5.80;99.90;;;;;;5035577;28;20040;-78
2021/04/13 07:29:45;;;;;;;12.10;6.78;;;5.60;99.90;;;;;;5035806;28;20540;-78
2021/04/13 07:32:19;;;;;;;12.30;8.25;;;5.50;99.90;;;;;;5018010;28;20036;-79
2021/04/13 07:34:47;;;;;;;13.23;8.98;;;5.50;99.90;;;;;;5035422;28;20021;-78
2021/04/13 07:37:23;;;;;;;11.52;8.00;;;5.80;99.90;;;;;;5035323;28;20111;-79
2021/04/13 07:39:53;;;;;;;12.90;9.52;;;6.00;99.90;;;;;;5017214;28;20095;-78
2021/04/13 07:42:30;;;;;;;13.00;8.35;;;5.90;99.90;;;;;;5017399;28;20125;-78
2021/04/13 07:45:01;;;;;;;13.65;9.13;;;6.20;99.90;;;;;;5035132;28;20038;-78
2021/04/13 07:47:36;;;;;;;17.88;10.93;;;6.20;99.90;;;;;;5017322;28;20393;-78
2021/04/13 07:50:03;;;;;;;18.13;8.75;;;6.20;99.90;;;;;;5035083;28;20108;-78
2021/04/13 07:52:58;;;;;;;15.32;10.13;;;6.30;99.90;;;;;;5017235;28;20091;-78
2021/04/13 07:55:26;;;;;;;13.05;8.50;;;6.10;99.90;;;;;;5035507;28;20495;-78
2021/04/13 07:58:20;;;;;;;11.30;8.07;;;6.30;99.90;;;;;;5034951;28;20056;-78
2021/04/13 08:00:52;;;;;;;10.85;7.00;;;6.20;99.90;;;;;;5017113;28;20068;-80
2021/04/13 08:03:34;;;;;;;11.95;8.27;;;6.30;99.90;;;;;;5017113;28;20079;-78
2021/04/13 08:06:28;;;;;;;8.95;6.97;;;6.50;99.90;;;;;;5035123;28;20109;-78
2021/04/13 08:09:12;;;;;;;8.52;7.13;;;6.50;99.90;;;;;;5016845;28;20036;-78
2021/04/13 08:11:38;;;;;;;9.43;7.45;;;6.40;99.90;;;;;;5017002;28;20025;-77
2021/04/13 08:14:16;;;;;;;10.32;7.60;;;6.30;99.90;;;;;;5016974;28;20179;-77
2021/04/13 08:16:42;;;;;;;12.38;8.43;;;6.40;99.90;;;;;;5034822;28;20017;-79
2021/04/13 08:19:27;;;;;;;12.40;8.73;;;6.20;99.90;;;;;;5034587;28;20385;-77
2021/04/13 08:22:09;;;;;;;9.18;6.90;;;6.00;99.90;;;;;;5016896;28;20379;-77
2021/04/13 08:24:43;;;;;;;8.13;6.95;;;6.40;99.90;;;;;;5016871;28;20025;-78
2021/04/13 08:27:39;;;;;;;7.90;5.07;;;6.40;99.90;;;;;;5016512;28;20121;-77
2021/04/13 08:30:45;;;;;;;7.90;4.78;;;6.70;99.90;;;;;;5016581;28;20473;-77
2021/04/13 08:33:32;;;;;;;10.57;5.75;;;7.00;99.90;;;;;;5016540;28;20480;-76
2021/04/13 08:36:21;;;;;;;6.82;4.85;;;6.90;99.90;;;;;;5016559;28;20480;-77
2021/04/13 08:39:16;;;;;;;10.13;5.20;;;7.00;99.90;;;;;;5034126;28;20025;-77
2021/04/13 08:42:11;;;;;;;7.15;5.63;;;6.60;99.90;;;;;;5016186;28;20501;-76
2021/04/13 08:44:58;;;;;;;5.65;4.65;;;6.50;99.90;;;;;;5016325;28;20056;-77
2021/04/13 08:47:29;;;;;;;7.28;5.32;;;6.50;99.90;;;;;;5016566;28;20037;-77
2021/04/13 08:49:58;;;;;;;14.65;8.18;;;6.60;99.90;;;;;;5016326;28;20402;-77
2021/04/13 08:52:42;;;;;;;7.90;6.15;;;6.60;99.90;;;;;;5033875;28;20021;-77
2021/04/13 08:55:36;;;;;;;10.68;7.50;;;6.40;99.90;;;;;;5034147;28;20500;-77
2021/04/13 08:58:14;;;;;;;8.85;6.43;;;6.40;99.90;;;;;;4999147;28;20026;-77
2021/04/13 09:00:45;;;;;;;10.60;6.72;;;6.70;99.90;;;;;;5016012;28;20084;-76
2021/04/13 09:03:20;;;;;;;7.82;6.00;;;7.00;99.90;;;;;;5033754;28;20030;-78
2021/04/13 09:05:48;;;;;;;9.52;7.28;;;7.30;99.90;;;;;;5015987;28;20488;-79
2021/04/13 09:08:46;;;;;;;12.40;8.02;;;7.20;99.90;;;;;;5033632;28;20536;-78
2021/04/13 09:11:22;;;;;;;6.78;5.82;;;7.20;99.90;;;;;;5034125;28;20029;-78
2021/04/13 09:14:09;;;;;;;9.43;6.05;;;7.40;99.90;;;;;;5015882;28;20024;-78
2021/04/13 09:16:38;;;;;;;8.57;5.68;;;7.70;99.90;;;;;;5033626;28;20027;-78
2021/04/13 09:19:18;;;;;;;8.60;5.82;;;7.90;99.90;;;;;;5015728;28;20025;-78
2021/04/13 09:21:50;;;;;;;6.68;5.30;;;8.50;99.90;;;;;;5016003;28;20381;-78
2021/04/13 09:24:40;;;;;;;7.28;5.90;;;8.50;99.90;;;;;;5016591;28;20048;-78
2021/04/13 09:27:34;;;;;;;9.27;7.68;;;8.00;99.90;;;;;;5015712;28;20076;-78
2021/04/13 09:30:19;;;;;;;9.65;8.20;;;7.60;99.90;;;;;;5015737;28;20362;-78
2021/04/13 09:32:47;;;;;;;9.85;7.97;;;7.40;99.90;;;;;;5033357;28;20022;-78
2021/04/13 09:35:31;;;;;;;14.23;8.68;;;7.20;99.90;;;;;;5015512;28;20489;-78
2021/04/13 09:38:03;;;;;;;9.23;6.75;;;7.00;99.90;;;;;;5015421;28;20384;-79
2021/04/13 09:40:49;;;;;;;8.63;6.88;;;7.20;99.90;;;;;;5032632;28;20453;-78
2021/04/13 09:43:27;;;;;;;8.85;6.95;;;7.30;99.90;;;;;;5033230;28;20022;-78
2021/04/13 09:46:26;;;;;;;7.78;5.88;;;7.40;99.90;;;;;;5015496;28;20025;-78
2021/04/13 09:49:13;;;;;;;6.80;5.65;;;7.30;99.90;;;;;;5015391;28;20028;-78
2021/04/13 09:52:06;;;;;;;5.95;5.35;;;7.20;99.90;;;;;;5015481;28;20077;-78
2021/04/13 09:54:40;;;;;;;6.82;5.57;;;7.20;99.90;;;;;;5015399;28;20033;-78
2021/04/13 09:57:43;;;;;;;8.48;6.07;;;7.60;99.90;;;;;;5015417;28;20057;-78
2021/04/13 10:00:30;;;;;;;10.20;6.22;;;8.10;99.90;;;;;;5015183;28;20107;-77
2021/04/13 10:03:20;;;;;;;8.25;6.60;;;8.30;99.90;;;;;;5015166;28;20548;-79
2021/04/13 10:05:48;;;;;;;7.38;6.18;;;8.30;99.90;;;;;;5032953;28;20033;-78
2021/04/13 10:08:34;;;;;;;9.25;6.20;;;8.00;99.90;;;;;;5033305;28;20025;-78
2021/04/13 10:11:11;;;;;;;14.73;7.40;;;7.80;99.90;;;;;;5033221;28;20532;-78
2021/04/13 10:14:14;;;;;;;11.63;8.32;;;7.50;99.90;;;;;;5015190;28;20491;-78
2021/04/13 10:16:53;;;;;;;12.48;8.27;;;7.30;99.90;;;;;;5032935;28;20022;-78
2021/04/13 10:19:37;;;;;;;13.52;7.78;;;7.20;99.90;;;;;;5015208;28;20431;-78
2021/04/13 10:25:39;;;;;;;9.40;7.38;;;7.30;99.90;;;;;;5033373;28;20511;-76
2021/04/13 10:28:16;;;;;;;10.90;8.07;;;7.60;99.90;;;;;;5015082;28;20029;-77
2021/04/13 10:31:20;;;;;;;18.52;7.78;;;7.50;99.90;;;;;;5014936;28;20018;-76
2021/04/13 10:34:13;;;;;;;10.18;7.85;;;7.80;99.90;;;;;;5032733;28;20520;-77
2021/04/13 10:37:08;;;;;;;10.82;6.97;;;8.50;99.90;;;;;;5014947;28;20021;-77
2021/04/13 10:39:38;;;;;;;10.02;7.22;;;10.10;99.90;;;;;;5014768;28;20570;-78
2021/04/13 10:42:38;;;;;;;11.55;5.93;;;10.50;97.60;;;;;;5015448;28;20037;-78
2021/04/13 10:46:02;;;;;;;10.70;6.65;;;10.40;98.70;;;;;;5014983;28;20504;-78
2021/04/13 10:49:16;;;;;;;8.40;6.13;;;9.80;96.80;;;;;;4961940;28;20052;-78
2021/04/13 10:52:03;;;;;;;11.07;6.35;;;9.40;97.80;;;;;;4982665;28;20044;-79
2021/04/13 10:54:57;;;;;;;12.38;6.57;;;9.10;99.00;;;;;;5018395;28;20029;-80
2021/04/13 10:57:38;;;;;;;8.80;7.10;;;8.70;99.90;;;;;;5018359;28;20033;-79
2021/04/13 11:00:40;;;;;;;8.60;6.60;;;8.00;99.90;;;;;;5036090;28;20093;-78
2021/04/13 11:03:52;;;;;;;13.45;8.38;;;7.60;99.90;;;;;;5018977;28;20025;-78
2021/04/13 11:06:38;;;;;;;11.02;7.28;;;7.50;99.90;;;;;;5036252;28;20072;-78
2021/04/13 11:09:57;;;;;;;8.63;6.60;;;7.70;99.90;;;;;;5035875;28;20025;-77
2021/04/13 11:12:35;;;;;;;10.45;6.80;;;7.70;99.90;;;;;;4920638;29;20148;-77
2021/04/13 11:15:44;;;;;;;12.50;7.25;;;7.80;99.90;;;;;;5036102;28;20101;-77
2021/04/13 11:18:26;;;;;;;8.02;5.95;;;8.00;99.90;;;;;;4920465;29;20024;-78
2021/04/13 11:20:55;;;;;;;7.80;6.00;;;9.50;99.90;;;;;;4936374;29;20035;-78
2021/04/13 11:23:54;;;;;;;7.63;5.90;;;10.00;99.90;;;;;;4995548;28;20443;-77
2021/04/13 11:26:31;;;;;;;8.02;6.03;;;9.20;99.90;;;;;;5017885;28;20374;-78
2021/04/13 11:29:19;;;;;;;8.63;5.50;;;8.50;99.90;;;;;;5017724;28;20021;-77
2021/04/13 11:32:02;;;;;;;6.43;4.90;;;8.60;99.90;;;;;;5035777;28;20026;-77
2021/04/13 11:34:40;;;;;;;6.82;4.95;;;8.20;99.90;;;;;;5035256;28;20017;-77
2021/04/13 11:37:27;;;;;;;10.65;5.97;;;8.20;99.90;;;;;;5035278;28;20033;-77
2021/04/13 11:40:01;;;;;;;10.00;6.55;;;8.10;99.90;;;;;;5017978;28;20061;-77
2021/04/13 11:42:35;;;;;;;10.77;6.18;;;8.10;99.90;;;;;;5017449;28;20025;-77
2021/04/13 11:45:16;;;;;;;;;;;8.20;99.90;;;;;;5035639;28;20033;-77
2021/04/13 11:47:50;;;;;;;8.77;4.50;;;8.40;99.90;;;;;;5017396;28;19951;-77
2021/04/13 11:50:30;;;;;;;5.28;4.78;;;9.30;99.90;;;;;;5035365;28;20033;-77
2021/04/13 11:53:07;;;;;;;7.75;5.97;;;10.40;97.20;;;;;;5017435;28;20400;-77
2021/04/13 11:55:49;;;;;;;6.63;4.13;;;10.10;97.40;;;;;;5035338;28;20025;-77
2021/04/13 11:58:21;;;;;;;6.15;4.47;;;9.60;96.20;;;;;;5017259;28;20044;-77
2021/04/13 12:01:16;;;;;;;7.40;5.05;;;9.20;96.10;;;;;;5017165;28;20033;-76
2021/04/13 12:04:01;;;;;;;7.82;5.75;;;8.70;98.70;;;;;;5016752;28;20025;-78
2021/04/13 12:06:51;;;;;;;7.47;5.13;;;8.40;99.60;;;;;;5000130;28;20034;-77
2021/04/13 12:09:44;;;;;;;6.72;5.10;;;8.40;99.90;;;;;;5018056;28;20373;-77
2021/04/13 12:12:32;;;;;;;5.63;4.30;;;9.10;96.90;;;;;;5016978;28;20029;-77
2021/04/13 12:15:07;;;;;;;6.50;3.60;;;11.10;95.00;;;;;;5034605;28;20025;-78
2021/04/13 12:17:40;;;;;;;5.47;4.30;;;12.70;93.20;;;;;;5034874;28;20075;-79
2021/04/13 12:23:05;;;;;;;5.15;3.60;;;13.50;82.20;;;;;;5035103;28;20040;-78
2021/04/13 12:25:43;;;;;;;7.53;3.95;;;14.10;80.80;;;;;;5016775;28;20112;-78
2021/04/13 12:28:11;;;;;;;8.63;4.38;;;14.50;79.50;;;;;;5016676;28;20396;-78
2021/04/13 12:30:43;;;;;;;7.55;4.82;;;13.00;82.20;;;;;;5016634;28;20033;-78
2021/04/13 12:33:29;;;;;;;5.45;4.82;;;11.60;88.00;;;;;;5034332;28;20537;-78
2021/04/13 12:36:09;;;;;;;9.20;7.00;;;10.70;90.00;;;;;;4999618;28;20034;-78
2021/04/13 12:38:52;;;;;;;8.70;4.50;;;10.20;90.80;;;;;;5017059;28;20472;-78
2021/04/13 12:41:25;;;;;;;7.78;6.43;;;9.70;90.80;;;;;;5016361;28;20500;-78
2021/04/13 12:43:55;;;;;;;4.97;4.47;;;9.00;90.60;;;;;;5034180;28;20384;-77
2021/04/13 12:46:29;;;;;;;5.95;4.75;;;8.80;91.80;;;;;;5016374;28;20026;-77
2021/04/13 12:48:57;;;;;;;7.38;4.18;;;8.70;93.30;;;;;;5016315;28;20037;-78
2021/04/13 12:51:33;;;;;;;7.22;4.32;;;8.40;93.40;;;;;;5016155;28;20057;-78
2021/04/13 12:54:14;;;;;;;4.45;3.58;;;8.30;93.40;;;;;;5016221;28;20060;-78
2021/04/13 12:56:47;;;;;;;5.63;3.33;;;8.40;92.00;;;;;;5034012;28;20036;-77
2021/04/13 12:59:17;;;;;;;3.65;2.95;;;8.30;92.50;;;;;;5016170;28;20022;-78
2021/04/13 13:01:46;;;;;;;5.35;2.90;;;8.20;91.90;;;;;;5016218;28;20068;-77
2021/04/13 13:04:14;;;;;;;4.32;3.00;;;7.90;93.10;;;;;;5016028;28;20079;-77
2021/04/13 13:06:45;;;;;;;4.70;3.00;;;7.80;83.30;;;;;;5015861;28;20052;-78
2021/04/13 13:09:27;;;;;;;4.88;3.15;;;7.90;93.10;;;;;;5033684;28;20018;-77
2021/04/13 13:12:05;;;;;;;4.78;3.25;;;8.70;90.60;;;;;;5016291;28;20063;-77
2021/04/13 13:14:33;;;;;;;5.50;3.33;;;9.30;86.90;;;;;;5033202;28;20021;-77
2021/04/13 13:17:01;;;;;;;7.75;3.35;;;9.40;88.70;;;;;;5033593;28;20028;-78
2021/04/13 13:19:45;;;;;;;3.83;3.42;;;9.90;90.20;;;;;;5015790;28;20392;-78
2021/04/13 13:22:13;;;;;;;;;;;10.50;78.20;;;;;;5016203;28;20084;-77
2021/04/13 13:24:38;;;;;;;6.40;3.55;;;11.90;84.20;;;;;;5033436;28;19912;-79
2021/04/13 13:27:34;;;;;;;4.03;3.38;;;13.30;73.60;;;;;;5033826;28;20105;-79
2021/04/13 13:30:05;;;;;;;6.05;3.55;;;14.20;70.40;;;;;;5014964;28;20034;-78
2021/04/13 13:32:33;;;;;;;5.78;3.70;;;14.60;65.80;;;;;;5015988;28;20032;-78
2021/04/13 13:35:03;;;;;;;8.73;3.40;;;14.10;69.70;;;;;;5033371;28;20021;-79
2021/04/13 13:37:42;;;;;;;4.78;3.33;;;13.50;70.00;;;;;;5015565;28;20021;-78
2021/04/13 13:40:16;;;;;;;5.07;3.00;;;12.10;72.10;;;;;;5033142;28;20053;-78
2021/04/13 13:42:42;;;;;;;6.55;3.58;;;11.00;74.90;;;;;;5033586;28;20098;-78
2021/04/13 13:45:27;;;;;;;5.03;3.53;;;10.30;76.90;;;;;;5015605;28;20071;-78
2021/04/13 13:47:54;;;;;;;5.72;3.55;;;10.10;83.00;;;;;;5033274;28;20029;-78
2021/04/13 13:50:28;;;;;;;6.10;3.28;;;9.90;82.30;;;;;;5033140;28;20048;-78
2021/04/13 13:52:57;;;;;;;7.13;4.25;;;9.70;84.00;;;;;;5015468;28;20026;-78
2021/04/13 13:55:31;;;;;;;6.07;3.90;;;9.60;83.20;;;;;;5015424;28;20388;-78
2021/04/13 13:58:11;;;;;;;6.10;4.40;;;9.50;81.60;;;;;;5015502;28;20033;-78